Time;durP1;ratioP1;P1;durP2;ratioP2;P2;SDS_P1;SDS_P2;PMS_P1;PMS_P2;Temp;Humidity;BMP_temperature;BMP_pressure;BME280_temperature;BME280_humidity;BME280_pressure;Samples;Min_cycle;Max_cycle;Signal;HPM_P1;HPM_P2
2022/02/19 00:00:23;;;;;;;8.33;7.53;;;6.80;99.90;;;;;;5019285;28;20702;-74
2022/02/19 00:02:50;;;;;;;8.20;7.50;;;6.70;99.90;;;;;;5018088;28;20456;-76
2022/02/19 00:05:16;;;;;;;8.40;7.67;;;6.70;99.90;;;;;;5019710;28;20214;-74
2022/02/19 00:07:44;;;;;;;7.93;7.43;;;6.70;99.90;;;;;;5020962;28;20217;-74
2022/02/19 00:10:11;;;;;;;8.00;7.50;;;6.70;99.90;;;;;;5018862;28;20199;-75
2022/02/19 00:12:39;;;;;;;8.30;7.50;;;6.70;99.90;;;;;;5019942;28;20205;-74
2022/02/19 00:15:07;;;;;;;8.37;7.63;;;6.70;99.90;;;;;;5020056;28;20202;-77
2022/02/19 00:17:34;;;;;;;8.20;7.60;;;6.70;99.90;;;;;;5016987;28;20230;-76
2022/02/19 00:20:01;;;;;;;8.30;7.70;;;6.70;99.90;;;;;;5015734;28;20273;-77
2022/02/19 00:22:29;;;;;;;9.50;8.10;;;6.70;99.90;;;;;;5013422;28;20198;-74
2022/02/19 00:24:55;;;;;;;8.97;8.17;;;6.70;99.90;;;;;;5023350;28;20593;-74
2022/02/19 00:27:22;;;;;;;8.37;7.70;;;6.70;99.90;;;;;;5025522;28;20232;-75
2022/02/19 00:29:50;;;;;;;8.13;7.53;;;6.80;99.90;;;;;;5022535;28;20251;-75
2022/02/19 00:32:17;;;;;;;8.50;7.70;;;6.80;99.90;;;;;;5025075;28;20613;-75
2022/02/19 00:34:44;;;;;;;8.60;7.90;;;6.70;99.90;;;;;;5022229;28;20275;-74
2022/02/19 00:37:17;;;;;;;8.73;7.97;;;6.80;99.90;;;;;;5020433;28;20241;-74
2022/02/19 00:39:44;;;;;;;8.47;7.73;;;6.70;99.90;;;;;;5021653;28;20214;-74
2022/02/19 00:42:10;;;;;;;8.40;7.70;;;6.70;99.90;;;;;;5022892;28;20222;-75
2022/02/19 00:44:37;;;;;;;8.10;7.50;;;6.70;99.90;;;;;;5021719;28;20197;-74
2022/02/19 00:47:06;;;;;;;10.63;8.87;;;6.70;99.90;;;;;;5021764;28;20275;-74
2022/02/19 00:49:33;;;;;;;9.00;8.20;;;6.70;99.90;;;;;;5017691;28;20204;-74
2022/02/19 00:52:00;;;;;;;8.80;7.93;;;6.70;99.90;;;;;;5024676;28;20212;-75
2022/02/19 00:54:27;;;;;;;8.50;7.80;;;6.60;99.90;;;;;;5020589;28;20669;-75
2022/02/19 00:56:54;;;;;;;8.43;7.73;;;6.70;99.90;;;;;;5020380;28;20217;-75
2022/02/19 00:59:21;;;;;;;8.63;7.87;;;6.60;99.90;;;;;;5023915;28;20629;-74
2022/02/19 01:01:48;;;;;;;8.37;7.70;;;6.60;99.90;;;;;;5016045;28;20222;-74
2022/02/19 01:04:37;;;;;;;8.70;7.90;;;6.60;99.90;;;;;;5019823;28;20554;-75
2022/02/19 01:07:04;;;;;;;8.30;7.70;;;6.60;99.90;;;;;;5022660;28;20228;-74
2022/02/19 01:09:34;;;;;;;8.43;7.60;;;6.60;99.90;;;;;;5018674;28;20207;-74
2022/02/19 01:12:00;;;;;;;9.10;8.30;;;6.60;99.90;;;;;;5018717;28;20232;-74
2022/02/19 01:14:29;;;;;;;8.67;7.87;;;6.60;99.90;;;;;;5014464;28;20237;-74
2022/02/19 01:16:56;;;;;;;12.13;8.03;;;6.60;99.90;;;;;;5020535;28;20218;-74
2022/02/19 01:19:25;;;;;;;9.93;7.97;;;6.60;99.90;;;;;;5025002;28;20665;-74
2022/02/19 01:21:53;;;;;;;8.67;7.87;;;6.60;99.90;;;;;;5022327;28;20600;-74
2022/02/19 01:24:22;;;;;;;8.30;7.60;;;6.50;99.90;;;;;;5024185;28;20258;-75
2022/02/19 01:26:54;;;;;;;13.60;8.97;;;6.60;99.90;;;;;;5021774;28;20236;-75
2022/02/19 01:29:21;;;;;;;9.23;8.33;;;6.60;99.90;;;;;;5017984;28;20208;-75
2022/02/19 01:31:48;;;;;;;9.30;8.40;;;6.60;99.90;;;;;;5019907;28;20288;-75
2022/02/19 01:34:15;;;;;;;10.03;8.00;;;6.60;99.90;;;;;;5021570;28;20669;-75
2022/02/19 01:36:42;;;;;;;8.97;8.07;;;6.50;99.90;;;;;;5025447;28;20223;-74
2022/02/19 01:39:12;;;;;;;8.77;7.80;;;6.50;99.90;;;;;;5023225;28;20196;-74
2022/02/19 01:41:39;;;;;;;10.60;8.53;;;6.50;99.90;;;;;;5023770;28;20849;-75
2022/02/19 01:44:08;;;;;;;8.67;7.50;;;6.60;99.90;;;;;;5023158;28;20207;-75
2022/02/19 01:46:35;;;;;;;12.37;8.10;;;6.50;99.90;;;;;;5023553;28;20760;-74
2022/02/19 01:49:02;;;;;;;10.57;8.03;;;6.50;99.90;;;;;;5019414;28;20193;-74
2022/02/19 01:51:31;;;;;;;8.73;7.80;;;6.50;99.90;;;;;;5026635;28;20194;-75
2022/02/19 01:54:02;;;;;;;8.80;7.60;;;6.50;99.90;;;;;;5020425;28;20678;-75
2022/02/19 01:56:45;;;;;;;9.03;7.17;;;6.50;99.90;;;;;;5014046;28;20605;-74
2022/02/19 01:59:32;;;;;;;12.90;7.93;;;6.60;99.90;;;;;;5019333;28;20256;-74
2022/02/19 02:02:06;;;;;;;8.83;7.97;;;6.50;99.90;;;;;;5020628;28;20614;-74
2022/02/19 02:04:47;;;;;;;14.37;8.53;;;6.50;99.90;;;;;;5018080;28;20303;-74
2022/02/19 02:07:14;;;;;;;11.83;8.17;;;6.50;99.90;;;;;;5021523;28;20258;-74
2022/02/19 02:09:44;;;;;;;13.90;8.40;;;6.50;99.90;;;;;;5020916;28;20207;-74
2022/02/19 02:12:15;;;;;;;9.00;8.03;;;6.50;99.90;;;;;;5017973;28;20197;-74
2022/02/19 02:14:55;;;;;;;10.73;8.33;;;6.50;99.90;;;;;;5018568;28;20291;-75
2022/02/19 02:17:30;;;;;;;10.50;8.13;;;6.50;99.90;;;;;;5012037;28;20586;-75
2022/02/19 02:19:57;;;;;;;15.90;8.73;;;6.50;99.90;;;;;;5019703;28;20651;-74
2022/02/19 02:22:26;;;;;;;11.30;8.57;;;6.50;99.90;;;;;;5021613;28;20267;-74
2022/02/19 02:24:54;;;;;;;9.87;8.87;;;6.50;99.90;;;;;;5019416;28;20211;-75
2022/02/19 02:27:40;;;;;;;9.27;8.37;;;6.40;99.90;;;;;;5016230;28;20591;-74
2022/02/19 02:30:09;;;;;;;8.90;8.10;;;6.40;99.90;;;;;;5022111;28;20231;-74
2022/02/19 02:32:41;;;;;;;10.43;8.23;;;6.40;99.90;;;;;;5019779;28;20350;-74
2022/02/19 02:35:10;;;;;;;9.37;8.37;;;6.40;99.90;;;;;;5018716;28;20670;-74
2022/02/19 02:37:43;;;;;;;9.20;8.43;;;6.40;99.90;;;;;;5019196;28;20270;-74
2022/02/19 02:40:11;;;;;;;9.03;8.23;;;6.40;99.90;;;;;;5021538;28;20557;-74
2022/02/19 02:42:38;;;;;;;15.00;8.43;;;6.40;99.90;;;;;;5020744;28;20203;-75
2022/02/19 02:45:12;;;;;;;9.83;4.10;;;6.40;99.90;;;;;;5020557;28;20209;-75
2022/02/19 02:47:43;;;;;;;7.43;3.23;;;6.30;99.90;;;;;;5016256;28;20212;-75
2022/02/19 02:50:11;;;;;;;6.40;3.07;;;6.40;99.90;;;;;;5014733;28;20212;-74
2022/02/19 02:52:40;;;;;;;9.00;2.93;;;6.30;99.90;;;;;;5022513;28;20208;-75
2022/02/19 02:55:12;;;;;;;7.60;3.47;;;6.30;99.90;;;;;;5018172;28;20204;-75
2022/02/19 02:57:39;;;;;;;6.67;2.77;;;6.30;99.90;;;;;;5020896;28;20236;-75
2022/02/19 03:00:09;;;;;;;7.70;3.27;;;6.30;99.90;;;;;;5019765;28;20687;-75
2022/02/19 03:02:39;;;;;;;7.90;2.70;;;6.30;99.90;;;;;;5014350;28;20285;-75
2022/02/19 03:05:09;;;;;;;7.17;2.97;;;6.30;99.90;;;;;;5019999;28;20258;-75
2022/02/19 03:07:37;;;;;;;7.87;2.60;;;6.30;99.90;;;;;;5017212;28;20215;-75
2022/02/19 03:10:07;;;;;;;10.10;2.80;;;6.20;99.90;;;;;;5021927;28;20197;-74
2022/02/19 03:12:37;;;;;;;6.47;2.63;;;6.20;99.90;;;;;;5019579;28;20579;-75
2022/02/19 03:15:06;;;;;;;9.23;2.80;;;6.20;99.90;;;;;;5019211;28;20255;-75
2022/02/19 03:17:36;;;;;;;6.17;2.33;;;6.20;99.90;;;;;;5021307;28;20303;-75
2022/02/19 03:20:04;;;;;;;6.87;2.80;;;6.20;99.90;;;;;;5018902;28;20657;-75
2022/02/19 03:22:33;;;;;;;11.13;2.70;;;6.20;99.90;;;;;;5016987;28;20216;-75
2022/02/19 03:24:59;;;;;;;6.37;2.43;;;6.10;99.90;;;;;;5021102;28;20191;-74
2022/02/19 03:27:28;;;;;;;6.10;2.53;;;6.20;99.90;;;;;;5015347;28;20360;-74
2022/02/19 03:30:02;;;;;;;4.47;2.40;;;6.10;99.90;;;;;;5015725;28;20263;-74
2022/02/19 03:32:32;;;;;;;6.10;2.60;;;6.10;99.90;;;;;;5027479;28;20189;-74
2022/02/19 03:34:59;;;;;;;8.10;3.13;;;6.10;99.90;;;;;;5018582;28;20757;-75
2022/02/19 03:37:26;;;;;;;5.60;3.17;;;6.10;99.90;;;;;;5022288;28;20271;-74
2022/02/19 03:40:06;;;;;;;10.07;3.03;;;6.10;99.90;;;;;;5021389;28;20294;-74
2022/02/19 03:42:33;;;;;;;4.90;3.10;;;6.20;99.90;;;;;;5010430;28;20208;-75
2022/02/19 03:45:02;;;;;;;9.13;2.93;;;6.20;99.90;;;;;;5010221;28;20206;-75
2022/02/19 03:47:29;;;;;;;7.70;2.63;;;6.20;99.90;;;;;;5026486;28;20686;-75
2022/02/19 03:50:08;;;;;;;3.80;3.07;;;6.20;99.90;;;;;;5019385;28;20581;-74
2022/02/19 03:52:38;;;;;;;7.27;2.43;;;6.20;99.90;;;;;;5011970;28;20232;-74
2022/02/19 03:55:07;;;;;;;7.33;2.70;;;6.20;99.90;;;;;;5019177;28;20250;-74
2022/02/19 03:57:34;;;;;;;8.00;5.40;;;6.20;99.90;;;;;;5003614;28;20335;-75
2022/02/19 04:00:05;;;;;;;10.43;7.00;;;6.20;99.90;;;;;;5020861;28;20719;-77
2022/02/19 04:02:43;;;;;;;7.70;3.23;;;6.20;99.90;;;;;;5020000;28;20262;-74
2022/02/19 04:05:16;;;;;;;10.03;3.00;;;6.10;99.90;;;;;;5015339;28;20210;-75
2022/02/19 04:07:45;;;;;;;5.87;2.53;;;6.10;99.90;;;;;;5009053;28;21272;-74
2022/02/19 04:10:18;;;;;;;7.43;3.00;;;6.00;99.90;;;;;;5021888;28;20192;-77
2022/02/19 04:12:45;;;;;;;7.10;2.90;;;6.00;99.90;;;;;;5017389;28;20211;-77
2022/02/19 04:15:21;;;;;;;5.13;2.70;;;6.00;99.90;;;;;;5017160;28;20199;-77
2022/02/19 04:17:51;;;;;;;5.87;2.40;;;6.00;99.90;;;;;;5014605;28;20693;-74
2022/02/19 04:20:18;;;;;;;5.63;2.63;;;6.00;99.90;;;;;;5015210;28;20202;-74
2022/02/19 04:22:45;;;;;;;9.10;3.13;;;5.90;99.90;;;;;;5013439;28;20224;-74
2022/02/19 04:25:13;;;;;;;5.60;2.93;;;5.90;99.90;;;;;;5016323;28;20197;-74
2022/02/19 04:27:41;;;;;;;6.23;2.80;;;6.00;99.90;;;;;;5017622;28;20606;-75
2022/02/19 04:30:09;;;;;;;8.37;2.70;;;5.90;99.90;;;;;;5027097;28;20207;-74
2022/02/19 04:32:42;;;;;;;7.80;2.97;;;6.00;99.90;;;;;;5025516;28;20192;-75
2022/02/19 04:35:11;;;;;;;9.77;2.93;;;5.90;99.90;;;;;;5024311;28;20643;-74
2022/02/19 04:37:39;;;;;;;9.70;3.00;;;5.90;99.90;;;;;;5023904;28;20214;-74
2022/02/19 04:40:08;;;;;;;11.10;3.03;;;5.90;99.90;;;;;;5022019;28;20207;-74
2022/02/19 04:42:38;;;;;;;6.63;2.90;;;5.90;99.90;;;;;;5019343;28;20555;-74
2022/02/19 04:45:17;;;;;;;6.53;2.70;;;5.90;99.90;;;;;;5017954;28;20212;-75
2022/02/19 04:47:54;;;;;;;7.00;2.80;;;5.80;99.90;;;;;;5020667;28;20605;-74
2022/02/19 04:50:24;;;;;;;8.40;2.50;;;5.80;99.90;;;;;;5013379;28;20284;-74
2022/02/19 04:52:53;;;;;;;6.47;2.37;;;5.80;99.90;;;;;;5012859;28;20251;-74
2022/02/19 04:55:21;;;;;;;6.23;2.30;;;5.70;99.90;;;;;;5019060;28;20200;-74
2022/02/19 04:57:48;;;;;;;6.00;2.43;;;5.70;99.90;;;;;;5022102;28;20232;-74
2022/02/19 05:00:18;;;;;;;6.90;2.77;;;5.70;99.90;;;;;;5027451;28;20226;-74
2022/02/19 05:03:05;;;;;;;7.43;2.40;;;5.60;99.90;;;;;;5019165;28;20227;-75
2022/02/19 05:05:36;;;;;;;7.07;2.80;;;5.60;99.90;;;;;;5021393;28;20193;-74
2022/02/19 05:08:05;;;;;;;6.93;3.23;;;5.60;99.90;;;;;;5020657;28;20299;-74
2022/02/19 05:10:33;;;;;;;7.00;2.30;;;5.60;99.90;;;;;;5020234;28;20205;-75
2022/02/19 05:13:01;;;;;;;6.83;2.80;;;5.60;99.90;;;;;;5023414;28;20243;-77
2022/02/19 05:15:28;;;;;;;7.13;2.50;;;5.50;99.90;;;;;;5023747;28;20196;-77
2022/02/19 05:18:20;;;;;;;7.33;2.50;;;5.50;99.90;;;;;;5025913;28;20199;-78
2022/02/19 05:20:47;;;;;;;7.03;2.77;;;5.50;99.90;;;;;;5024386;28;20205;-77
2022/02/19 05:23:14;;;;;;;5.37;2.30;;;5.50;99.90;;;;;;5027759;28;20220;-77
2022/02/19 05:25:41;;;;;;;6.70;2.40;;;5.40;99.90;;;;;;5022490;28;20646;-76
2022/02/19 05:28:12;;;;;;;4.27;2.20;;;5.40;99.90;;;;;;5057936;22;20228;-77
2022/02/19 05:30:39;;;;;;;8.10;2.60;;;5.40;99.90;;;;;;5023642;28;20735;-78
2022/02/19 05:33:36;;;;;;;7.83;4.23;;;5.40;99.90;;;;;;5023906;28;20211;-78
2022/02/19 05:36:03;;;;;;;5.07;2.40;;;5.40;99.90;;;;;;5026376;28;20558;-78
2022/02/19 05:38:31;;;;;;;5.40;2.90;;;5.40;99.90;;;;;;5045746;28;20670;-79
2022/02/19 05:40:58;;;;;;;6.63;3.60;;;5.30;99.90;;;;;;5033369;28;20193;-79
2022/02/19 05:43:25;;;;;;;6.77;4.10;;;5.30;99.90;;;;;;5041601;28;20945;-80
2022/02/19 05:45:52;;;;;;;5.47;3.90;;;5.30;99.90;;;;;;5038575;28;20207;-80
2022/02/19 05:48:21;;;;;;;7.43;5.53;;;5.20;99.90;;;;;;5045591;28;20584;-80
2022/02/19 05:51:06;;;;;;;7.93;7.00;;;5.20;99.90;;;;;;5046642;28;20699;-79
2022/02/19 05:53:49;;;;;;;8.87;7.93;;;5.20;99.90;;;;;;5042034;28;20214;-79
2022/02/19 05:56:16;;;;;;;8.33;6.90;;;5.20;99.90;;;;;;5038446;28;20259;-78
2022/02/19 05:58:43;;;;;;;7.63;6.73;;;5.10;99.90;;;;;;5046817;28;20639;-79
2022/02/19 06:01:17;;;;;;;7.23;6.67;;;5.10;99.90;;;;;;5040047;28;20199;-79
2022/02/19 06:03:49;;;;;;;7.10;6.50;;;5.00;99.90;;;;;;5047149;28;20675;-79
2022/02/19 06:06:22;;;;;;;8.07;6.70;;;5.00;99.90;;;;;;5047750;28;20193;-79
2022/02/19 06:08:49;;;;;;;7.10;6.50;;;5.00;99.90;;;;;;5039169;28;20283;-79
2022/02/19 06:11:18;;;;;;;7.03;6.53;;;4.90;99.90;;;;;;5042313;28;20184;-79
2022/02/19 06:14:05;;;;;;;7.73;7.03;;;4.90;99.90;;;;;;5042540;28;20261;-79
2022/02/19 06:16:40;;;;;;;7.97;7.27;;;4.90;99.90;;;;;;5043807;28;20290;-79
2022/02/19 06:19:07;;;;;;;8.03;7.23;;;4.80;99.90;;;;;;5041022;28;20204;-79
2022/02/19 06:21:35;;;;;;;7.77;7.07;;;4.80;99.90;;;;;;5042218;28;20708;-79
2022/02/19 06:24:02;;;;;;;8.87;7.17;;;4.80;99.90;;;;;;5039013;28;20204;-79
2022/02/19 06:26:31;;;;;;;10.10;7.87;;;4.80;99.90;;;;;;5059876;28;20641;-78
2022/02/19 06:29:18;;;;;;;8.37;7.70;;;4.80;99.90;;;;;;5037769;28;20218;-79
2022/02/19 06:31:52;;;;;;;7.67;6.97;;;4.80;99.90;;;;;;5035611;28;20200;-79
2022/02/19 06:34:19;;;;;;;7.80;7.13;;;4.80;99.90;;;;;;5030547;28;20235;-79
2022/02/19 06:36:48;;;;;;;9.83;7.23;;;4.70;99.90;;;;;;5033398;28;20220;-79
2022/02/19 06:39:21;;;;;;;10.73;7.63;;;4.70;99.90;;;;;;5034362;28;20275;-78
2022/02/19 06:41:48;;;;;;;10.27;7.30;;;4.70;99.90;;;;;;5034027;28;20216;-78
2022/02/19 06:44:26;;;;;;;9.40;7.30;;;4.70;99.90;;;;;;5051738;28;20195;-79
2022/02/19 06:46:57;;;;;;;10.20;7.60;;;4.80;99.90;;;;;;5028339;28;20220;-78
2022/02/19 06:49:24;;;;;;;8.30;7.60;;;4.80;99.90;;;;;;5038527;28;20192;-78
2022/02/19 06:51:57;;;;;;;7.70;7.00;;;4.80;99.90;;;;;;5031210;28;20204;-76
2022/02/19 06:54:24;;;;;;;7.37;6.83;;;4.90;99.90;;;;;;5041804;28;20245;-78
2022/02/19 06:56:52;;;;;;;7.50;6.83;;;5.00;99.90;;;;;;5028372;28;20216;-78
2022/02/19 06:59:19;;;;;;;8.50;7.60;;;5.00;99.90;;;;;;5038943;28;20204;-77
2022/02/19 07:01:46;;;;;;;7.73;7.03;;;5.10;99.90;;;;;;5036926;28;20211;-77
2022/02/19 07:04:15;;;;;;;9.03;7.47;;;5.10;99.90;;;;;;5033587;28;20204;-77
2022/02/19 07:06:54;;;;;;;8.70;7.30;;;5.20;99.90;;;;;;5037569;28;20233;-78
2022/02/19 07:09:26;;;;;;;10.37;7.20;;;5.30;99.90;;;;;;5044264;28;20289;-80
2022/02/19 07:11:59;;;;;;;10.30;7.40;;;5.40;99.90;;;;;;5042539;28;20196;-83
2022/02/19 07:14:29;;;;;;;9.43;7.10;;;5.50;99.90;;;;;;5019066;28;20497;-81
2022/02/19 07:17:02;;;;;;;16.90;8.50;;;5.60;99.90;;;;;;5037854;28;20329;-77
2022/02/19 07:19:33;;;;;;;8.70;7.63;;;5.70;99.90;;;;;;5038679;28;20203;-80
2022/02/19 07:22:00;;;;;;;7.27;6.30;;;5.90;99.90;;;;;;5045249;28;20603;-79
2022/02/19 07:24:29;;;;;;;8.43;7.57;;;6.00;99.90;;;;;;5039444;28;20629;-79
2022/02/19 07:26:57;;;;;;;7.93;7.07;;;6.10;99.90;;;;;;5036293;28;20775;-80
2022/02/19 07:29:25;;;;;;;9.50;8.57;;;6.20;99.90;;;;;;5032953;28;20567;-78
2022/02/19 07:31:52;;;;;;;11.93;8.53;;;6.30;99.90;;;;;;5037603;28;20276;-79
2022/02/19 07:34:20;;;;;;;11.47;10.43;;;6.40;99.90;;;;;;5035140;28;20267;-78
2022/02/19 07:36:49;;;;;;;10.13;9.27;;;6.40;99.90;;;;;;5037180;28;20232;-77
2022/02/19 07:39:17;;;;;;;9.40;7.87;;;6.50;99.90;;;;;;5026773;28;20209;-79
2022/02/19 07:41:51;;;;;;;7.03;4.43;;;6.60;99.90;;;;;;5039490;28;20213;-79
2022/02/19 07:44:18;;;;;;;7.77;7.07;;;6.70;99.90;;;;;;5045294;28;20209;-77
2022/02/19 07:47:06;;;;;;;10.73;8.90;;;7.00;99.90;;;;;;5028761;28;20268;-77
2022/02/19 07:58:41;;;;;;;11.97;8.60;;;8.30;99.90;;;;;;5035499;28;20226;-78
2022/02/19 08:01:10;;;;;;;8.60;7.87;;;8.50;99.90;;;;;;5032931;28;20200;-78
2022/02/19 08:03:42;;;;;;;11.93;8.60;;;8.80;99.90;;;;;;5033351;28;20280;-79
2022/02/19 08:06:09;;;;;;;12.17;8.37;;;8.90;99.90;;;;;;5037684;28;20258;-79
2022/02/19 08:08:40;;;;;;;8.20;7.30;;;9.40;99.90;;;;;;5030633;28;20222;-78
2022/02/19 08:11:17;;;;;;;8.77;3.50;;;9.70;99.90;;;;;;5035467;28;20290;-80
2022/02/19 08:13:46;;;;;;;6.10;3.40;;;10.00;99.90;;;;;;5036580;28;20196;-79
2022/02/19 08:16:13;;;;;;;6.20;3.73;;;10.30;99.90;;;;;;5035299;28;20192;-79
2022/02/19 08:18:40;;;;;;;7.00;6.30;;;10.60;99.90;;;;;;5038248;28;20310;-80
2022/02/19 08:21:06;;;;;;;7.83;6.77;;;11.00;99.90;;;;;;5040684;28;20219;-79
2022/02/19 08:23:34;;;;;;;9.30;5.67;;;10.90;99.90;;;;;;5043712;28;20216;-79
2022/02/19 08:26:01;;;;;;;8.87;8.20;;;11.10;99.90;;;;;;5032160;28;20303;-78
2022/02/19 08:28:27;;;;;;;10.20;7.93;;;11.10;99.90;;;;;;5026720;28;20222;-80
2022/02/19 08:30:56;;;;;;;8.73;7.83;;;11.20;99.90;;;;;;5038235;28;20207;-80
2022/02/19 08:33:23;;;;;;;6.67;2.93;;;11.20;99.90;;;;;;5035343;28;20749;-78
2022/02/19 08:35:50;;;;;;;4.47;2.53;;;11.30;99.90;;;;;;5036673;28;20205;-78
2022/02/19 08:38:17;;;;;;;8.27;6.63;;;11.20;99.90;;;;;;5035788;28;20225;-79
2022/02/19 08:40:44;;;;;;;9.07;8.17;;;11.20;99.90;;;;;;5038084;28;20210;-79
2022/02/19 08:43:11;;;;;;;8.63;7.80;;;11.00;99.90;;;;;;5039476;28;20221;-78
2022/02/19 08:45:41;;;;;;;7.60;7.00;;;11.00;99.90;;;;;;5045752;28;20198;-78
2022/02/19 08:48:11;;;;;;;8.13;7.03;;;10.90;99.90;;;;;;5031932;28;20711;-78
2022/02/19 08:50:39;;;;;;;7.50;6.80;;;10.50;99.90;;;;;;5039271;28;20683;-78
2022/02/19 08:53:06;;;;;;;8.43;7.63;;;10.20;99.90;;;;;;5036597;28;20201;-79
2022/02/19 08:55:37;;;;;;;8.37;7.63;;;10.10;99.90;;;;;;5035899;28;20203;-79
2022/02/19 08:58:05;;;;;;;8.13;7.30;;;10.00;99.90;;;;;;5037059;28;20699;-78
2022/02/19 09:00:32;;;;;;;4.87;2.43;;;10.50;99.90;;;;;;5037388;28;20204;-78
2022/02/19 09:02:59;;;;;;;6.17;2.90;;;10.80;99.90;;;;;;5038840;28;20721;-79
2022/02/19 09:05:28;;;;;;;7.80;7.00;;;11.10;99.90;;;;;;5046984;28;20194;-79
2022/02/19 09:07:59;;;;;;;7.20;6.60;;;11.30;99.90;;;;;;5041706;28;20221;-79
2022/02/19 09:10:26;;;;;;;8.07;7.30;;;11.30;99.90;;;;;;5041177;28;20219;-79
2022/02/19 09:12:54;;;;;;;7.07;6.33;;;11.50;99.90;;;;;;5040779;28;20252;-80
2022/02/19 09:15:23;;;;;;;9.57;7.20;;;11.80;99.90;;;;;;5049350;28;20217;-79
2022/02/19 09:17:51;;;;;;;9.40;7.57;;;12.10;99.90;;;;;;5044904;28;20226;-79
2022/02/19 09:20:21;;;;;;;7.40;6.80;;;12.20;99.90;;;;;;5043180;28;20194;-78
2022/02/19 09:22:50;;;;;;;9.53;6.83;;;12.30;99.90;;;;;;5035452;28;20278;-80
2022/02/19 09:25:17;;;;;;;8.47;6.90;;;12.30;99.90;;;;;;5036765;28;20194;-80
2022/02/19 09:27:44;;;;;;;7.73;6.67;;;12.40;99.90;;;;;;5037020;28;20234;-79
2022/02/19 09:30:19;;;;;;;7.03;6.33;;;12.60;99.90;;;;;;5037835;28;20205;-80
2022/02/19 09:32:49;;;;;;;9.63;5.70;;;12.60;99.90;;;;;;5046343;28;20192;-80
2022/02/19 09:35:19;;;;;;;8.87;6.47;;;12.40;99.90;;;;;;5043724;28;20203;-79
2022/02/19 09:37:48;;;;;;;8.87;7.63;;;12.60;99.90;;;;;;5032871;28;20254;-77
2022/02/19 09:40:16;;;;;;;10.80;7.10;;;12.60;99.90;;;;;;5037053;28;20192;-77
2022/02/19 09:42:45;;;;;;;8.23;6.80;;;12.70;99.90;;;;;;5031578;28;20223;-78
2022/02/19 09:45:12;;;;;;;7.57;6.87;;;12.70;99.90;;;;;;5028521;28;20400;-80
2022/02/19 09:47:39;;;;;;;6.93;6.20;;;12.60;99.90;;;;;;5032996;28;20270;-78
2022/02/19 09:50:07;;;;;;;6.83;6.33;;;12.60;99.90;;;;;;5025139;28;21277;-78
2022/02/19 09:52:35;;;;;;;7.90;7.10;;;12.50;99.90;;;;;;5034129;28;20192;-80
2022/02/19 09:55:02;;;;;;;9.43;6.70;;;12.50;99.90;;;;;;5037440;28;20632;-79
2022/02/19 09:57:31;;;;;;;7.47;6.87;;;12.40;99.90;;;;;;5026864;28;20219;-78
2022/02/19 09:59:58;;;;;;;8.43;6.40;;;12.40;99.90;;;;;;5029572;28;20206;-79
2022/02/19 10:02:32;;;;;;;8.93;6.87;;;12.50;99.90;;;;;;5049348;28;20207;-79
2022/02/19 10:05:15;;;;;;;7.73;6.93;;;12.40;99.90;;;;;;5061048;28;20198;-80
2022/02/19 10:07:43;;;;;;;9.57;7.23;;;12.00;99.90;;;;;;5051184;28;20298;-79
2022/02/19 10:10:24;;;;;;;7.67;6.97;;;11.50;99.90;;;;;;5037470;28;20207;-80
2022/02/19 10:12:53;;;;;;;7.17;6.60;;;11.20;99.90;;;;;;5034851;28;20671;-79
2022/02/19 10:15:22;;;;;;;9.53;6.63;;;11.30;99.90;;;;;;5042385;28;20229;-79
2022/02/19 10:17:48;;;;;;;7.80;7.10;;;11.00;99.90;;;;;;5040705;28;20218;-80
2022/02/19 10:20:17;;;;;;;7.13;6.63;;;11.00;99.90;;;;;;5051857;28;20202;-80
2022/02/19 10:22:44;;;;;;;9.33;6.63;;;11.00;99.90;;;;;;5050079;28;20193;-79
2022/02/19 10:25:13;;;;;;;8.87;6.97;;;10.90;99.90;;;;;;5057421;28;20281;-79
2022/02/19 10:27:46;;;;;;;7.23;6.57;;;10.90;99.90;;;;;;5057919;28;20258;-78
2022/02/19 10:30:16;;;;;;;6.87;6.30;;;10.80;99.90;;;;;;5037879;28;20671;-80
2022/02/19 10:32:48;;;;;;;7.00;6.40;;;11.00;99.90;;;;;;5039810;28;20200;-79
2022/02/19 10:35:16;;;;;;;6.53;6.03;;;11.10;99.90;;;;;;5048189;28;20287;-80
2022/02/19 10:37:46;;;;;;;7.07;6.27;;;11.00;99.90;;;;;;5041579;28;20221;-80
2022/02/19 10:40:38;;;;;;;8.33;6.53;;;11.20;99.90;;;;;;5038804;28;20227;-80
2022/02/19 10:43:07;;;;;;;8.70;7.13;;;11.30;99.90;;;;;;5040793;28;20232;-80
2022/02/19 10:45:39;;;;;;;7.40;6.63;;;11.30;99.90;;;;;;5041762;28;20195;-81
2022/02/19 10:48:15;;;;;;;6.70;6.10;;;11.20;99.90;;;;;;5037515;28;20308;-80
2022/02/19 10:50:42;;;;;;;7.93;7.17;;;11.10;99.90;;;;;;5043424;28;20221;-80
2022/02/19 10:53:10;;;;;;;7.13;6.43;;;11.10;99.90;;;;;;5037896;28;20221;-80
2022/02/19 10:55:37;;;;;;;8.07;6.13;;;11.10;99.90;;;;;;5046254;28;20517;-80
2022/02/19 10:58:06;;;;;;;7.30;6.60;;;11.20;99.90;;;;;;5042977;28;20727;-80
2022/02/19 11:00:36;;;;;;;7.07;6.27;;;11.10;99.90;;;;;;5041696;28;20685;-79
2022/02/19 11:03:04;;;;;;;6.63;6.13;;;11.10;99.90;;;;;;5041943;28;20632;-80
2022/02/19 11:05:32;;;;;;;6.67;6.07;;;11.10;99.90;;;;;;5046978;28;20616;-80
2022/02/19 11:08:01;;;;;;;6.27;5.70;;;11.20;99.90;;;;;;5044818;28;20252;-80
2022/02/19 11:10:29;;;;;;;8.00;6.43;;;11.20;99.90;;;;;;5037426;28;20222;-80
2022/02/19 11:12:57;;;;;;;7.00;6.40;;;11.30;99.90;;;;;;5033525;28;20212;-80
2022/02/19 11:15:27;;;;;;;6.40;5.87;;;11.30;99.90;;;;;;5039122;28;20208;-82
2022/02/19 11:17:57;;;;;;;7.80;6.37;;;11.30;99.90;;;;;;5047332;28;20291;-81
2022/02/19 11:20:42;;;;;;;7.77;6.23;;;11.10;99.90;;;;;;5041465;28;20201;-81
2022/02/19 11:23:17;;;;;;;7.17;6.47;;;10.80;99.90;;;;;;5040145;28;20231;-80
2022/02/19 11:25:56;;;;;;;8.87;6.43;;;10.60;99.90;;;;;;5034576;28;20192;-79
2022/02/19 11:28:23;;;;;;;7.67;6.83;;;10.40;99.90;;;;;;5027826;22;20236;-75
2022/02/19 11:30:54;;;;;;;7.67;6.87;;;10.20;99.90;;;;;;4997463;28;20545;-75
2022/02/19 11:33:23;;;;;;;6.93;6.43;;;10.30;99.90;;;;;;4994556;28;20663;-75
2022/02/19 11:35:51;;;;;;;8.33;7.00;;;10.20;99.90;;;;;;5003531;28;20250;-75
2022/02/19 11:38:22;;;;;;;9.13;7.10;;;10.20;99.90;;;;;;4992314;28;20213;-75
2022/02/19 11:40:52;;;;;;;8.70;7.57;;;10.20;99.90;;;;;;4986624;28;20277;-75
2022/02/19 11:43:33;;;;;;;7.97;6.00;;;10.20;99.90;;;;;;4990113;28;20560;-76
2022/02/19 11:46:02;;;;;;;7.00;6.17;;;10.20;99.90;;;;;;4995558;28;20200;-79
2022/02/19 11:48:30;;;;;;;4.83;2.37;;;10.30;99.90;;;;;;4992900;28;20220;-78
2022/02/19 11:51:10;;;;;;;5.97;3.50;;;10.30;99.90;;;;;;5000959;28;20193;-77
2022/02/19 11:53:37;;;;;;;8.67;7.80;;;10.30;99.90;;;;;;4992596;28;20300;-77
2022/02/19 11:56:10;;;;;;;8.13;7.20;;;10.30;99.90;;;;;;4986630;28;20396;-78
2022/02/19 11:58:50;;;;;;;8.33;7.53;;;10.20;99.90;;;;;;4997120;28;20603;-78
2022/02/19 12:01:17;;;;;;;6.10;5.50;;;10.20;99.90;;;;;;5000653;28;20213;-77
2022/02/19 12:03:45;;;;;;;6.53;5.47;;;10.40;99.90;;;;;;5001765;28;20262;-78
2022/02/19 12:06:20;;;;;;;5.17;4.77;;;10.40;99.90;;;;;;5000655;28;20194;-78
2022/02/19 12:09:11;;;;;;;5.40;4.90;;;10.40;99.90;;;;;;5000093;28;20223;-77
2022/02/19 12:12:09;;;;;;;7.33;6.57;;;10.70;99.90;;;;;;4995664;28;20594;-79
2022/02/19 12:15:01;;;;;;;7.70;6.23;;;11.00;99.90;;;;;;4939343;29;20198;-78
2022/02/19 12:17:44;;;;;;;6.73;6.13;;;11.10;99.90;;;;;;4988227;28;20276;-79
2022/02/19 12:20:25;;;;;;;7.30;6.60;;;11.20;99.90;;;;;;4989671;28;20207;-78
2022/02/19 12:22:54;;;;;;;7.83;6.30;;;11.20;99.90;;;;;;5004162;28;20227;-78
2022/02/19 12:25:21;;;;;;;7.13;6.43;;;11.30;99.90;;;;;;5000447;28;20234;-78
2022/02/19 12:28:17;;;;;;;7.00;6.30;;;11.30;99.90;;;;;;4997672;28;20248;-79
2022/02/19 12:30:45;;;;;;;6.13;5.73;;;11.40;99.90;;;;;;5003466;28;20621;-77
2022/02/19 12:33:12;;;;;;;6.20;4.60;;;11.40;99.90;;;;;;5011704;28;20206;-78
2022/02/19 12:35:45;;;;;;;7.57;6.90;;;11.50;99.90;;;;;;5006447;28;20218;-79
2022/02/19 12:38:13;;;;;;;8.70;6.30;;;11.50;99.90;;;;;;4989456;28;20741;-78
2022/02/19 12:40:41;;;;;;;7.23;6.20;;;11.40;99.90;;;;;;4992169;28;20196;-78
2022/02/19 12:43:14;;;;;;;7.10;6.40;;;11.30;99.90;;;;;;4986464;28;20665;-79
2022/02/19 12:45:42;;;;;;;6.83;6.20;;;11.10;99.90;;;;;;4986599;28;20201;-79
2022/02/19 12:48:09;;;;;;;7.17;6.37;;;11.00;99.90;;;;;;4985270;28;20250;-79
2022/02/19 12:50:36;;;;;;;7.93;6.67;;;11.00;99.90;;;;;;4984515;28;20198;-77
2022/02/19 12:53:04;;;;;;;7.07;6.47;;;11.00;99.90;;;;;;4981937;28;20586;-79
2022/02/19 12:55:31;;;;;;;6.70;6.20;;;10.90;99.90;;;;;;4992176;28;20209;-77
2022/02/19 12:58:03;;;;;;;6.57;6.07;;;10.80;99.90;;;;;;4988560;28;20249;-78
2022/02/19 13:00:30;;;;;;;6.63;5.90;;;10.80;99.90;;;;;;4988236;28;20205;-77
2022/02/19 13:03:00;;;;;;;5.90;5.40;;;10.80;99.90;;;;;;5004832;28;20209;-76
2022/02/19 13:05:27;;;;;;;6.97;5.87;;;10.50;99.90;;;;;;5006083;28;20269;-78
2022/02/19 13:08:08;;;;;;;6.37;5.80;;;10.30;99.90;;;;;;5006810;28;20218;-78
2022/02/19 13:10:36;;;;;;;6.37;5.83;;;10.20;99.90;;;;;;4990771;28;20206;-77
2022/02/19 13:13:16;;;;;;;7.13;6.43;;;10.10;99.90;;;;;;5007750;28;20229;-77
2022/02/19 13:15:43;;;;;;;6.97;6.27;;;10.10;99.90;;;;;;5007448;28;20268;-77
2022/02/19 13:18:09;;;;;;;8.80;7.50;;;10.10;99.90;;;;;;5002705;28;20218;-78